createdAt,value
2023-06-23T00:03:24.962Z,4.10
2023-06-23T00:08:20.200Z,4.70
2023-06-23T00:13:17.157Z,4.70
2023-06-23T00:18:13.669Z,5.10
2023-06-23T00:23:09.144Z,5.20
2023-06-23T00:28:05.229Z,5.00
2023-06-23T00:33:00.497Z,4.90
2023-06-23T00:37:56.277Z,4.90
2023-06-23T00:42:53.666Z,5.30
2023-06-23T00:47:49.805Z,5.60
2023-06-23T00:52:50.899Z,5.30
2023-06-23T00:57:48.180Z,5.50
2023-06-23T01:02:43.259Z,5.60
2023-06-23T01:07:53.262Z,5.20
2023-06-23T01:12:59.497Z,5.10
2023-06-23T01:18:03.297Z,5.20
2023-06-23T01:23:24.111Z,5.10
2023-06-23T01:28:51.226Z,5.00
2023-06-23T01:33:53.882Z,5.40
2023-06-23T01:38:56.325Z,5.10
2023-06-23T01:43:57.295Z,4.70
2023-06-23T01:48:59.197Z,4.60
2023-06-23T01:53:56.589Z,4.00
2023-06-23T01:58:55.304Z,3.80
2023-06-23T02:03:52.595Z,3.50
2023-06-23T02:08:48.972Z,3.50
2023-06-23T02:13:46.635Z,3.70
2023-06-23T02:18:44.222Z,3.50
2023-06-23T02:23:42.200Z,3.90
2023-06-23T02:28:39.356Z,3.60
2023-06-23T02:33:35.670Z,3.90
2023-06-23T02:38:37.556Z,3.60
2023-06-23T02:43:39.713Z,3.60
2023-06-23T02:48:40.468Z,3.70
2023-06-23T02:53:45.581Z,3.50
2023-06-23T02:58:41.063Z,3.40
2023-06-23T03:03:39.812Z,3.90
2023-06-23T03:08:36.378Z,3.50
2023-06-23T03:13:32.423Z,3.50
2023-06-23T03:18:32.589Z,3.50
2023-06-23T03:23:32.403Z,3.70
2023-06-23T03:28:34.869Z,3.40
2023-06-23T03:33:36.591Z,3.20
2023-06-23T03:38:40.580Z,3.20
2023-06-23T03:43:42.652Z,2.70
2023-06-23T03:48:42.355Z,2.80
2023-06-23T03:53:39.731Z,3.10
2023-06-23T03:58:37.873Z,2.80
2023-06-23T04:03:38.377Z,2.60
2023-06-23T04:08:36.012Z,3.20
2023-06-23T04:13:35.041Z,2.80
2023-06-23T04:18:32.786Z,2.60
2023-06-23T04:23:29.334Z,2.80
2023-06-23T04:28:28.988Z,2.90
2023-06-23T04:33:23.872Z,2.40
2023-06-23T04:38:23.327Z,2.50
2023-06-23T04:43:27.464Z,1.90
2023-06-23T04:48:31.053Z,2.80
2023-06-23T04:53:33.684Z,2.20
2023-06-23T04:58:36.476Z,3.10
2023-06-23T05:03:35.676Z,2.20
2023-06-23T05:08:33.724Z,2.20
2023-06-23T05:13:33.195Z,2.40
2023-06-23T05:18:31.591Z,2.30
2023-06-23T05:23:38.334Z,2.50
2023-06-23T05:28:48.179Z,2.30
2023-06-23T05:33:48.094Z,2.70
2023-06-23T05:38:47.190Z,2.40
2023-06-23T05:43:42.838Z,2.10
2023-06-23T05:48:45.389Z,2.50
2023-06-23T05:53:44.029Z,2.10
2023-06-23T05:58:45.753Z,2.50
2023-06-23T06:03:47.782Z,2.60
2023-06-23T06:08:45.297Z,2.70
2023-06-23T06:13:47.138Z,2.30
2023-06-23T06:18:44.684Z,2.10
2023-06-23T06:23:42.756Z,2.30
2023-06-23T06:28:42.675Z,2.50
2023-06-23T06:33:41.482Z,2.00
2023-06-23T06:38:41.450Z,2.40
2023-06-23T06:43:36.847Z,2.30
2023-06-23T06:48:35.790Z,2.50
2023-06-23T06:53:31.686Z,2.40
2023-06-23T06:58:28.250Z,2.40
2023-06-23T07:03:23.791Z,2.00
2023-06-23T07:08:18.794Z,2.80
2023-06-23T07:13:14.694Z,3.00
2023-06-23T07:18:10.525Z,2.50
2023-06-23T07:23:05.636Z,2.50
2023-06-23T07:28:00.527Z,3.20
2023-06-23T07:32:55.948Z,3.00
2023-06-23T07:37:52.033Z,3.30
2023-06-23T07:42:47.410Z,3.70
2023-06-23T07:47:42.654Z,3.60
2023-06-23T07:52:37.576Z,3.30
2023-06-23T07:57:32.431Z,3.30
2023-06-23T08:02:27.209Z,4.00
2023-06-23T08:07:22.163Z,3.50
2023-06-23T08:12:17.647Z,3.80
2023-06-23T08:17:12.881Z,4.00
2023-06-23T08:22:09.325Z,3.80
2023-06-23T08:27:06.014Z,5.00
2023-06-23T08:32:00.793Z,4.10
2023-06-23T08:36:56.437Z,4.40
2023-06-23T08:41:52.677Z,3.90
2023-06-23T08:52:03.106Z,4.50
2023-06-23T08:56:59.973Z,4.80
2023-06-23T09:01:55.174Z,5.50
2023-06-23T09:06:50.353Z,5.50
2023-06-23T09:11:46.890Z,5.40
2023-06-23T09:16:44.468Z,5.20
2023-06-23T09:21:42.748Z,5.20
2023-06-23T09:26:49.436Z,5.80
2023-06-23T09:31:50.270Z,5.10
2023-06-23T09:36:45.288Z,6.10
2023-06-23T09:41:51.837Z,6.10
2023-06-23T09:46:47.658Z,6.00
2023-06-23T09:51:50.191Z,6.10
2023-06-23T09:56:45.456Z,6.60
2023-06-23T10:01:41.151Z,4.70
2023-06-23T10:06:40.044Z,6.20
2023-06-23T10:11:37.298Z,5.90
2023-06-23T10:16:32.923Z,4.20
2023-06-23T10:21:29.530Z,3.50
2023-06-23T10:26:27.042Z,5.60
2023-06-23T10:31:24.592Z,6.10
2023-06-23T10:36:24.249Z,6.20
2023-06-23T10:41:21.302Z,7.00
2023-06-23T10:46:16.565Z,7.40
2023-06-23T10:51:13.074Z,8.10
2023-06-23T10:56:10.358Z,8.50
2023-06-23T11:01:06.281Z,8.80
2023-06-23T11:06:07.153Z,6.60
2023-06-23T11:11:08.368Z,8.90
2023-06-23T11:16:05.709Z,7.90
2023-06-23T11:21:17.408Z,8.70
2023-06-23T11:26:30.557Z,10.00
2023-06-23T11:31:28.140Z,8.90
2023-06-23T11:36:24.659Z,8.30
2023-06-23T11:41:29.539Z,8.60
2023-06-23T11:46:26.236Z,7.30
2023-06-23T11:51:22.490Z,9.70
2023-06-23T11:56:21.359Z,7.40
2023-06-23T12:01:19.968Z,7.30
2023-06-23T12:06:16.570Z,7.10
2023-06-23T12:11:12.274Z,8.70
2023-06-23T12:16:09.347Z,8.20
2023-06-23T12:21:04.580Z,7.10
2023-06-23T12:26:01.011Z,8.00
2023-06-23T12:30:56.918Z,9.20
2023-06-23T12:36:01.068Z,10.30
2023-06-23T12:40:57.169Z,8.80
2023-06-23T12:45:55.170Z,7.40
2023-06-23T12:50:53.383Z,7.50
2023-06-23T12:55:48.429Z,7.00
2023-06-23T13:00:44.046Z,8.30
2023-06-23T13:05:39.616Z,7.90
2023-06-23T13:10:34.736Z,8.60
2023-06-23T13:15:32.822Z,8.20
2023-06-23T13:20:28.024Z,9.10
2023-06-23T13:25:23.238Z,8.50
2023-06-23T13:30:19.195Z,8.40
2023-06-23T13:35:14.454Z,10.50
2023-06-23T13:40:13.964Z,10.10
2023-06-23T13:45:11.489Z,9.70
2023-06-23T13:50:12.824Z,9.00
2023-06-23T13:55:11.765Z,9.20
2023-06-23T14:00:11.171Z,8.70
2023-06-23T14:05:08.490Z,9.50
2023-06-23T14:10:06.338Z,9.50
2023-06-23T14:15:01.956Z,10.00
2023-06-23T14:19:57.564Z,9.20
2023-06-23T14:24:53.344Z,8.90
2023-06-23T14:29:48.505Z,7.60
2023-06-23T14:34:43.986Z,7.60
2023-06-23T14:39:39.205Z,8.10
2023-06-23T14:44:35.769Z,8.00
2023-06-23T14:49:31.377Z,7.50
2023-06-23T14:54:26.476Z,5.90
2023-06-23T14:59:22.657Z,7.40
2023-06-23T15:04:17.914Z,5.70
2023-06-23T15:09:13.444Z,7.00
2023-06-23T15:14:10.363Z,5.60
2023-06-23T15:19:06.180Z,6.20
2023-06-23T15:24:02.059Z,6.20
2023-06-23T15:28:57.913Z,5.50
2023-06-23T15:33:53.887Z,5.90
2023-06-23T15:38:49.093Z,5.00
2023-06-23T15:43:44.754Z,6.20
2023-06-23T15:48:40.729Z,5.80
2023-06-23T15:53:35.528Z,6.30
2023-06-23T15:58:30.535Z,6.30
2023-06-23T16:03:28.194Z,5.90
2023-06-23T16:08:23.523Z,6.10
2023-06-23T16:13:18.725Z,5.90
2023-06-23T16:18:14.172Z,6.70
2023-06-23T16:23:09.966Z,6.80
2023-06-23T16:28:06.082Z,6.30
2023-06-23T16:33:01.773Z,7.00
2023-06-23T16:37:57.833Z,6.70
2023-06-23T16:42:52.930Z,6.60
2023-06-23T17:02:35.079Z,6.20
2023-06-23T17:15:18.709Z,4.40
2023-06-23T17:21:10.158Z,7.90
2023-06-23T17:26:31.902Z,6.90
2023-06-23T17:31:28.710Z,7.30
2023-06-23T17:36:24.637Z,7.00
2023-06-23T17:41:20.586Z,5.00
2023-06-23T17:46:16.816Z,7.60
2023-06-23T17:51:12.516Z,8.30
2023-06-23T17:57:31.024Z,7.70
2023-06-23T18:02:53.034Z,4.30
2023-06-23T18:07:48.299Z,3.30
2023-06-23T18:12:53.568Z,2.60
2023-06-23T18:19:14.336Z,2.70
2023-06-23T18:24:11.366Z,2.30
2023-06-23T18:29:17.959Z,2.00
2023-06-23T18:34:13.917Z,2.30
2023-06-23T18:39:08.457Z,2.20
2023-06-23T18:44:09.788Z,2.50
2023-06-23T18:56:08.191Z,2.00
2023-06-23T19:01:03.271Z,2.00
2023-06-23T19:05:58.681Z,2.10
2023-06-23T19:10:54.545Z,2.30
2023-06-23T19:15:49.187Z,2.10
2023-06-23T19:20:45.542Z,1.60
2023-06-23T19:25:40.698Z,1.90
2023-06-23T19:30:38.299Z,1.70
2023-06-23T19:35:37.959Z,1.90
2023-06-23T19:40:33.385Z,1.50
2023-06-23T19:45:28.999Z,1.90
2023-06-23T19:50:23.857Z,2.40
2023-06-23T19:55:18.691Z,1.70
2023-06-23T20:00:16.764Z,1.50
2023-06-23T20:05:12.997Z,1.90
2023-06-23T20:10:12.087Z,1.80
2023-06-23T20:15:10.552Z,2.00
2023-06-23T20:20:08.337Z,2.00
2023-06-23T20:25:04.486Z,1.80
2023-06-23T20:30:00.206Z,2.00
2023-06-23T20:34:55.965Z,1.90
2023-06-23T20:39:51.395Z,1.80
2023-06-23T20:44:46.714Z,1.60
2023-06-23T20:49:42.838Z,2.00
2023-06-23T20:54:37.934Z,2.00
2023-06-23T20:59:33.651Z,1.80
2023-06-23T21:04:28.515Z,1.90
2023-06-23T21:09:23.651Z,1.90
2023-06-23T21:14:20.869Z,2.20
2023-06-23T21:19:17.191Z,2.10
2023-06-23T21:24:13.613Z,1.80
2023-06-23T21:34:08.880Z,2.30
2023-06-23T21:39:05.522Z,1.80
2023-06-23T21:44:00.873Z,2.50
2023-06-23T21:48:57.373Z,2.30
2023-06-23T21:53:55.075Z,2.60
2023-06-23T21:58:50.145Z,2.10
2023-06-23T22:03:45.161Z,2.30
2023-06-23T22:08:39.810Z,2.40
2023-06-23T22:13:35.068Z,2.90
2023-06-23T22:18:48.412Z,3.00
2023-06-23T22:23:45.101Z,2.60
2023-06-23T22:28:39.828Z,2.50
2023-06-23T22:33:36.003Z,2.70
2023-06-23T22:38:31.388Z,2.60
2023-06-23T22:43:27.154Z,2.30
2023-06-23T22:48:22.451Z,2.80
2023-06-23T22:53:17.645Z,2.80
2023-06-23T22:58:13.154Z,2.80
2023-06-23T23:03:09.087Z,2.60
2023-06-23T23:08:05.591Z,2.20
2023-06-23T23:13:04.599Z,2.80
2023-06-23T23:17:59.559Z,2.20
2023-06-23T23:22:55.078Z,2.30
2023-06-23T23:27:51.818Z,2.50
2023-06-23T23:32:49.087Z,2.60
2023-06-23T23:37:45.723Z,2.50
2023-06-23T23:42:42.299Z,2.40
2023-06-23T23:47:37.867Z,2.40
2023-06-23T23:52:33.093Z,2.20
2023-06-23T23:57:29.510Z,2.60
